createdAt,value
2024-05-09T00:00:43.370Z,103161.44
2024-05-09T00:03:11.722Z,103168.22
2024-05-09T00:05:41.147Z,103171.44
2024-05-09T00:08:09.579Z,103166.66
2024-05-09T00:10:41.253Z,103173.44
2024-05-09T00:13:10.347Z,103170.22
2024-05-09T00:15:37.732Z,103165.03
2024-05-09T00:18:05.837Z,103159.03
2024-05-09T00:20:38.665Z,103165.41
2024-05-09T00:23:09.527Z,103151.03
2024-05-09T00:25:37.166Z,103146.66
2024-05-09T00:28:04.153Z,103143.84
2024-05-09T00:30:34.795Z,103135.84
2024-05-09T00:33:07.697Z,103131.84
2024-05-09T00:35:35.968Z,103119.47
2024-05-09T00:38:03.167Z,103121.84
2024-05-09T00:40:40.482Z,103115.06
2024-05-09T00:43:10.509Z,103113.06
2024-05-09T00:45:37.565Z,103122.66
2024-05-09T00:48:07.740Z,103127.03
2024-05-09T00:50:38.880Z,103129.44
2024-05-09T00:53:11.875Z,103128.66
2024-05-09T00:55:39.892Z,103124.66
2024-05-09T00:58:12.181Z,103130.25
2024-05-09T01:00:41.152Z,103128.63
2024-05-09T01:03:11.623Z,103127.41
2024-05-09T01:05:40.616Z,103121.41
2024-05-09T01:08:08.311Z,103117.44
2024-05-09T01:10:36.565Z,103122.22
2024-05-09T01:13:07.397Z,103124.63
2024-05-09T01:15:35.804Z,103120.22
2024-05-09T01:18:10.551Z,103117.41
2024-05-09T01:20:42.308Z,103112.22
2024-05-09T01:23:12.245Z,103103.44
2024-05-09T01:25:39.755Z,103098.25
2024-05-09T01:28:07.354Z,103090.22
2024-05-09T01:30:36.535Z,103100.66
2024-05-09T01:33:10.684Z,103106.59
2024-05-09T01:35:41.352Z,103095.81
2024-05-09T01:38:10.003Z,103104.63
2024-05-09T01:40:39.847Z,103094.66
2024-05-09T01:43:08.820Z,103097.81
2024-05-09T01:45:39.331Z,103093.44
2024-05-09T01:48:07.058Z,103085.84
2024-05-09T01:50:39.222Z,103088.25
2024-05-09T01:53:14.070Z,103094.63
2024-05-09T01:55:44.158Z,103098.22
2024-05-09T01:58:11.307Z,103092.22
2024-05-09T02:00:42.616Z,103098.19
2024-05-09T02:03:14.412Z,103097.00
2024-05-09T02:05:44.571Z,103103.78
2024-05-09T02:08:18.398Z,103096.97
2024-05-09T02:10:47.146Z,103083.41
2024-05-09T02:13:14.644Z,103093.34
2024-05-09T02:15:41.479Z,103091.75
2024-05-09T02:18:09.166Z,103082.16
2024-05-09T02:20:39.116Z,103081.34
2024-05-09T02:23:06.909Z,103070.56
2024-05-09T02:25:34.166Z,103058.59
2024-05-09T02:28:01.356Z,103074.19
2024-05-09T02:30:38.621Z,103079.34
2024-05-09T02:33:10.079Z,103079.72
2024-05-09T02:35:38.616Z,103080.13
2024-05-09T02:38:05.554Z,103073.34
2024-05-09T02:40:37.428Z,103060.56
2024-05-09T02:43:13.728Z,103070.94
2024-05-09T02:45:40.715Z,103079.72
2024-05-09T02:48:10.943Z,103074.13
2024-05-09T02:50:39.926Z,103071.75
2024-05-09T02:53:08.759Z,103074.13
2024-05-09T02:55:38.965Z,103072.50
2024-05-09T02:58:09.632Z,103074.50
2024-05-09T03:00:40.228Z,103081.28
2024-05-09T03:03:10.868Z,103077.69
2024-05-09T03:05:40.391Z,103073.69
2024-05-09T03:08:07.725Z,103076.06
2024-05-09T03:10:36.885Z,103066.09
2024-05-09T03:13:14.908Z,103071.28
2024-05-09T03:15:43.154Z,103076.06
2024-05-09T03:18:10.951Z,103078.44
2024-05-09T03:20:38.550Z,103076.06
2024-05-09T03:23:08.643Z,103075.25
2024-05-09T03:25:36.382Z,103077.22
2024-05-09T03:28:03.742Z,103069.66
2024-05-09T03:30:39.439Z,103074.03
2024-05-09T03:33:15.389Z,103065.25
2024-05-09T03:35:46.116Z,103065.25
2024-05-09T03:38:13.116Z,103063.66
2024-05-09T03:40:47.640Z,103068.84
2024-05-09T03:43:14.716Z,103063.63
2024-05-09T03:45:44.736Z,103072.41
2024-05-09T03:48:11.859Z,103072.81
2024-05-09T03:50:39.007Z,103074.78
2024-05-09T03:53:06.310Z,103074.38
2024-05-09T03:55:33.121Z,103074.38
2024-05-09T03:57:59.962Z,103072.78
2024-05-09T04:00:36.834Z,103066.78
2024-05-09T04:03:08.488Z,103061.97
2024-05-09T04:05:39.810Z,103059.19
2024-05-09T04:08:07.660Z,103065.16
2024-05-09T04:10:36.701Z,103052.38
2024-05-09T04:13:06.223Z,103048.00
2024-05-09T04:15:33.357Z,103048.81
2024-05-09T04:18:03.067Z,103036.44
2024-05-09T04:20:37.630Z,103043.19
2024-05-09T04:23:08.746Z,103036.44
2024-05-09T04:25:36.341Z,103036.78
2024-05-09T04:28:05.821Z,103040.78
2024-05-09T04:30:38.163Z,103046.78
2024-05-09T04:33:09.505Z,103041.19
2024-05-09T04:35:38.921Z,103038.00
2024-05-09T04:38:08.041Z,103030.78
2024-05-09T04:40:37.082Z,103034.38
2024-05-09T04:43:13.764Z,103036.78
2024-05-09T04:45:40.845Z,103039.16
2024-05-09T04:48:08.611Z,103032.75
2024-05-09T04:50:38.570Z,103033.97
2024-05-09T04:53:08.749Z,103033.16
2024-05-09T04:55:37.282Z,103041.94
2024-05-09T04:58:08.206Z,103041.94
2024-05-09T05:00:37.419Z,103050.72
2024-05-09T05:03:08.046Z,103049.91
2024-05-09T05:05:38.190Z,103058.28
2024-05-09T05:08:05.934Z,103064.25
2024-05-09T05:10:36.287Z,103067.06
2024-05-09T05:13:18.199Z,103065.03
2024-05-09T05:15:49.132Z,103064.22
2024-05-09T05:18:18.786Z,103064.22
2024-05-09T05:20:46.102Z,103057.47
2024-05-09T05:23:17.235Z,103065.03
2024-05-09T05:25:44.618Z,103065.03
2024-05-09T05:28:11.533Z,103067.81
2024-05-09T05:30:38.988Z,103073.00
2024-05-09T05:33:10.364Z,103071.81
2024-05-09T05:35:37.595Z,103061.81
2024-05-09T05:38:04.703Z,103073.00
2024-05-09T05:40:36.111Z,103073.38
2024-05-09T05:43:10.463Z,103067.41
2024-05-09T05:45:40.306Z,103074.97
2024-05-09T05:48:07.944Z,103075.38
2024-05-09T05:50:38.546Z,103069.78
2024-05-09T05:53:09.584Z,103069.78
2024-05-09T05:55:37.901Z,103076.97
2024-05-09T05:58:04.955Z,103076.97
2024-05-09T06:00:38.345Z,103065.00
2024-05-09T06:03:07.781Z,103069.78
2024-05-09T06:05:36.329Z,103072.19
2024-05-09T06:08:03.180Z,103073.00
2024-05-09T06:10:37.567Z,103077.75
2024-05-09T06:13:07.492Z,103077.75
2024-05-09T06:15:34.459Z,103072.19
2024-05-09T06:18:01.703Z,103076.97
2024-05-09T06:20:35.575Z,103073.00
2024-05-09T06:23:07.922Z,103077.41
2024-05-09T06:25:36.028Z,103075.38
2024-05-09T06:28:05.957Z,103073.41
2024-05-09T06:30:42.421Z,103078.59
2024-05-09T06:33:12.815Z,103072.22
2024-05-09T06:35:41.895Z,103077.41
2024-05-09T06:38:09.587Z,103081.00
2024-05-09T06:40:39.990Z,103077.81
2024-05-09T06:43:17.149Z,103083.41
2024-05-09T06:45:47.944Z,103081.84
2024-05-09T06:48:17.628Z,103082.59
2024-05-09T06:50:44.813Z,103083.75
2024-05-09T06:53:14.249Z,103078.59
2024-05-09T06:55:41.175Z,103077.00
2024-05-09T06:58:11.840Z,103076.25
2024-05-09T07:00:41.203Z,103071.06
2024-05-09T07:03:15.498Z,103082.25
2024-05-09T07:05:45.445Z,103073.91
2024-05-09T07:08:13.059Z,103068.72
2024-05-09T07:10:39.965Z,103066.34
2024-05-09T07:13:10.895Z,103061.97
2024-05-09T07:15:37.896Z,103072.75
2024-05-09T07:18:15.020Z,103067.97
2024-05-09T07:20:42.375Z,103070.34
2024-05-09T07:23:13.118Z,103067.63
2024-05-09T07:25:41.182Z,103072.41
2024-05-09T07:28:19.347Z,103067.63
2024-05-09T07:30:48.754Z,103061.63
2024-05-09T07:33:16.784Z,103069.63
2024-05-09T07:35:43.804Z,103070.03
2024-05-09T07:38:10.664Z,103072.03
2024-05-09T07:40:41.704Z,103076.81
2024-05-09T07:43:11.636Z,103081.19
2024-05-09T07:45:48.604Z,103073.22
2024-05-09T07:53:39.542Z,103066.88
2024-05-09T07:56:10.492Z,103069.28
2024-05-09T07:58:38.891Z,103073.69
2024-05-09T08:01:06.147Z,103065.25
2024-05-09T08:03:33.371Z,103064.75
2024-05-09T08:06:00.483Z,103063.06
2024-05-09T08:08:30.251Z,103065.81
2024-05-09T08:10:57.087Z,103060.88
2024-05-09T08:13:24.142Z,103064.81
2024-05-09T08:15:51.849Z,103066.41
2024-05-09T08:18:19.080Z,103071.75
2024-05-09T08:20:48.515Z,103061.38
2024-05-09T08:23:15.278Z,103059.75
2024-05-09T08:25:44.297Z,103060.97
2024-05-09T08:28:13.959Z,103057.38
2024-05-09T08:30:41.384Z,103066.66
2024-05-09T08:33:08.395Z,103061.50
2024-05-09T08:35:35.727Z,103058.63
2024-05-09T08:38:09.478Z,103061.75
2024-05-09T08:40:37.935Z,103059.09
2024-05-09T08:43:11.290Z,103056.34
2024-05-09T08:45:44.559Z,103060.00
2024-05-09T08:48:14.705Z,103060.47
2024-05-09T08:50:43.227Z,103066.16
2024-05-09T08:53:12.461Z,103060.16
2024-05-09T08:55:43.174Z,103058.13
2024-05-09T08:58:16.439Z,103060.53
2024-05-09T09:00:45.404Z,103062.97
2024-05-09T09:03:19.215Z,103061.78
2024-05-09T09:05:58.720Z,103056.97
2024-05-09T09:08:26.456Z,103045.81
2024-05-09T09:10:57.627Z,103049.00
2024-05-09T09:13:26.299Z,103049.03
2024-05-09T09:15:58.665Z,103047.06
2024-05-09T09:18:26.873Z,103049.50
2024-05-09T09:20:54.152Z,103040.25
2024-05-09T09:23:20.980Z,103039.88
2024-05-09T09:25:47.881Z,103044.28
2024-05-09T09:28:14.947Z,103039.84
2024-05-09T09:30:42.776Z,103044.63
2024-05-09T09:33:10.558Z,103040.66
2024-05-09T09:35:43.157Z,103041.09
2024-05-09T09:38:11.163Z,103043.50
2024-05-09T09:40:45.775Z,103039.91
2024-05-09T09:43:19.750Z,103043.13
2024-05-09T09:45:51.987Z,103044.72
2024-05-09T09:48:20.386Z,103037.13
2024-05-09T09:50:48.557Z,103043.91
2024-05-09T09:53:16.900Z,103031.91
2024-05-09T09:55:43.713Z,103027.53
2024-05-09T09:58:13.960Z,103031.94
2024-05-09T10:00:42.023Z,103026.31
2024-05-09T10:03:09.195Z,103027.53
2024-05-09T10:05:37.006Z,103031.91
2024-05-09T10:08:06.605Z,103031.91
2024-05-09T10:10:35.820Z,103027.09
2024-05-09T10:13:09.181Z,103029.53
2024-05-09T10:15:52.404Z,103030.72
2024-05-09T10:18:28.279Z,103035.91
2024-05-09T10:20:57.675Z,103033.91
2024-05-09T10:23:29.513Z,103030.31
2024-05-09T10:26:00.991Z,103030.31
2024-05-09T10:28:29.179Z,103027.53
2024-05-09T10:31:06.890Z,103028.72
2024-05-09T10:33:48.965Z,103035.13
2024-05-09T10:36:19.385Z,103024.72
2024-05-09T10:38:46.240Z,103033.94
2024-05-09T10:41:13.175Z,103020.75
2024-05-09T10:43:41.402Z,103019.94
2024-05-09T10:46:09.017Z,103016.72
2024-05-09T10:48:40.307Z,103010.31
2024-05-09T10:51:08.114Z,103017.53
2024-05-09T10:54:01.229Z,103014.72
2024-05-09T10:56:30.297Z,102995.91
2024-05-09T10:58:57.014Z,103001.53
2024-05-09T11:01:23.854Z,102999.09
2024-05-09T11:03:51.274Z,103002.69
2024-05-09T11:06:18.413Z,102999.91
2024-05-09T11:08:46.967Z,102990.63
2024-05-09T11:11:16.369Z,102992.59
2024-05-09T11:13:43.267Z,102994.53
2024-05-09T11:16:21.825Z,102999.28
2024-05-09T11:19:00.196Z,102995.59
2024-05-09T11:21:27.181Z,102988.75
2024-05-09T11:23:54.340Z,102983.91
2024-05-09T11:26:22.338Z,102994.25
2024-05-09T11:28:50.884Z,102991.41
2024-05-09T11:31:18.189Z,102992.91
2024-05-09T11:33:48.137Z,102987.59
2024-05-09T11:36:15.348Z,102997.94
2024-05-09T11:38:42.660Z,102995.41
2024-05-09T11:41:09.480Z,102985.69
2024-05-09T11:43:38.443Z,102989.53
2024-05-09T11:46:05.499Z,102985.00
2024-05-09T11:48:32.825Z,102984.06
2024-05-09T11:50:59.704Z,102985.53
2024-05-09T11:53:26.447Z,102992.59
2024-05-09T11:55:53.439Z,102975.94
2024-05-09T11:58:21.522Z,102983.34
2024-05-09T12:00:48.535Z,102980.75
2024-05-09T12:03:17.727Z,102981.38
2024-05-09T12:05:44.645Z,102979.56
2024-05-09T12:08:12.138Z,102970.09
2024-05-09T12:10:38.997Z,102965.44
2024-05-09T12:13:07.078Z,102964.34
2024-05-09T12:15:37.848Z,102967.31
2024-05-09T12:18:06.732Z,102963.91
2024-05-09T12:20:38.353Z,102962.13
2024-05-09T12:23:08.635Z,102951.06
2024-05-09T12:25:37.279Z,102948.06
2024-05-09T12:28:04.613Z,102932.50
2024-05-09T12:30:37.501Z,102939.44
2024-05-09T12:33:13.999Z,102936.72
2024-05-09T12:35:45.414Z,102923.59
2024-05-09T12:38:15.284Z,102922.09
2024-05-09T12:40:42.483Z,102919.81
2024-05-09T12:43:10.642Z,102920.69
2024-05-09T12:45:38.745Z,102919.34
2024-05-09T12:48:12.463Z,102919.19
2024-05-09T12:50:42.794Z,102914.59
2024-05-09T12:53:09.659Z,102917.94
2024-05-09T12:55:44.286Z,102910.91
2024-05-09T12:58:20.097Z,102904.91
2024-05-09T13:00:47.401Z,102906.50
2024-05-09T13:03:15.104Z,102899.91
2024-05-09T13:05:44.825Z,102900.59
2024-05-09T13:08:12.749Z,102888.88
2024-05-09T13:10:39.741Z,102889.06
2024-05-09T13:13:06.834Z,102894.41
2024-05-09T13:15:34.774Z,102887.47
2024-05-09T13:18:03.387Z,102878.41
2024-05-09T13:20:35.545Z,102877.78
2024-05-09T13:23:05.430Z,102874.84
2024-05-09T13:25:34.585Z,102879.34
2024-05-09T13:28:01.861Z,102871.03
2024-05-09T13:30:37.743Z,102871.53
2024-05-09T13:33:08.283Z,102867.16
2024-05-09T13:35:36.037Z,102860.06
2024-05-09T13:38:04.656Z,102850.25
2024-05-09T13:40:36.054Z,102849.25
2024-05-09T13:43:05.029Z,102852.22
2024-05-09T13:45:32.405Z,102852.72
2024-05-09T13:48:04.032Z,102845.94
2024-05-09T13:50:36.047Z,102840.75
2024-05-09T13:53:06.577Z,102838.13
2024-05-09T13:55:35.112Z,102848.44
2024-05-09T13:58:07.189Z,102844.13
2024-05-09T14:00:44.178Z,102837.56
2024-05-09T14:03:16.493Z,102837.91
2024-05-09T14:05:44.781Z,102832.25
2024-05-09T14:08:12.022Z,102832.22
2024-05-09T14:10:44.759Z,102832.78
2024-05-09T14:13:13.005Z,102824.25
2024-05-09T14:15:40.111Z,102821.56
2024-05-09T14:18:11.455Z,102823.59
2024-05-09T14:20:40.570Z,102818.44
2024-05-09T14:23:07.350Z,102816.41
2024-05-09T14:25:38.684Z,102814.56
2024-05-09T14:28:08.759Z,102812.59
2024-05-09T14:30:37.887Z,102814.38
2024-05-09T14:33:07.698Z,102809.53
2024-05-09T14:35:35.598Z,102801.06
2024-05-09T14:38:03.018Z,102812.22
2024-05-09T14:40:40.226Z,102796.66
2024-05-09T14:43:11.821Z,102796.81
2024-05-09T14:45:38.959Z,102795.91
2024-05-09T14:48:07.063Z,102799.41
2024-05-09T14:50:37.555Z,102792.81
2024-05-09T14:53:07.780Z,102792.22
2024-05-09T14:55:37.280Z,102786.06
2024-05-09T14:58:09.106Z,102785.78
2024-05-09T15:00:45.782Z,102782.81
2024-05-09T15:03:16.456Z,102778.25
2024-05-09T15:05:43.372Z,102775.28
2024-05-09T15:08:10.209Z,102766.28
2024-05-09T15:10:37.864Z,102770.56
2024-05-09T15:13:07.960Z,102768.19
2024-05-09T15:15:36.992Z,102764.56
2024-05-09T15:18:05.050Z,102759.69
2024-05-09T15:20:35.983Z,102756.22
2024-05-09T15:23:05.715Z,102761.41
2024-05-09T15:25:33.665Z,102756.84
2024-05-09T15:28:00.756Z,102752.28
2024-05-09T15:30:31.050Z,102764.56
2024-05-09T15:33:01.001Z,102748.63
2024-05-09T15:35:28.130Z,102751.47
2024-05-09T15:37:55.517Z,102745.47
2024-05-09T15:40:31.462Z,102752.25
2024-05-09T15:43:05.991Z,102737.75
2024-05-09T15:45:33.184Z,102740.09
2024-05-09T15:48:00.449Z,102731.41
2024-05-09T15:50:36.293Z,102736.31
2024-05-09T15:53:07.469Z,102739.63
2024-05-09T15:55:35.195Z,102736.78
2024-05-09T15:58:03.439Z,102734.25
2024-05-09T16:00:38.343Z,102737.44
2024-05-09T16:03:09.869Z,102732.34
2024-05-09T16:05:37.610Z,102724.47
2024-05-09T16:08:05.821Z,102730.31
2024-05-09T16:10:34.327Z,102727.16
2024-05-09T16:13:02.830Z,102731.56
2024-05-09T16:15:30.523Z,102727.00
2024-05-09T16:17:57.563Z,102730.34
2024-05-09T16:22:57.223Z,102724.50
2024-05-09T16:25:23.973Z,102711.84
2024-05-09T16:27:51.819Z,102712.16
2024-05-09T16:30:27.741Z,102710.44
2024-05-09T16:33:01.052Z,102701.59
2024-05-09T16:35:27.927Z,102697.00
2024-05-09T16:37:54.712Z,102695.44
2024-05-09T16:40:30.108Z,102698.28
2024-05-09T16:43:04.715Z,102694.97
2024-05-09T16:45:32.071Z,102695.16
2024-05-09T16:48:00.308Z,102690.22
2024-05-09T16:50:32.419Z,102693.38
2024-05-09T16:53:02.194Z,102692.88
2024-05-09T16:55:31.480Z,102693.19
2024-05-09T16:57:58.741Z,102689.22
2024-05-09T17:00:35.863Z,102698.38
2024-05-09T17:03:09.617Z,102692.81
2024-05-09T17:05:37.130Z,102687.63
2024-05-09T17:08:04.486Z,102686.72
2024-05-09T17:10:35.272Z,102680.72
2024-05-09T17:13:04.670Z,102686.63
2024-05-09T17:15:33.312Z,102689.16
2024-05-09T17:18:01.304Z,102687.91
2024-05-09T17:20:33.245Z,102684.09
2024-05-09T17:23:03.761Z,102684.44
2024-05-09T17:25:30.730Z,102684.44
2024-05-09T17:27:59.696Z,102696.25
2024-05-09T17:30:32.470Z,102687.91
2024-05-09T17:33:07.599Z,102688.22
2024-05-09T17:35:36.184Z,102686.34
2024-05-09T17:38:03.283Z,102695.66
2024-05-09T17:40:33.911Z,102693.56
2024-05-09T17:43:04.442Z,102689.59
2024-05-09T17:45:32.301Z,102690.34
2024-05-09T17:47:59.650Z,102689.22
2024-05-09T17:50:33.868Z,102692.16
2024-05-09T17:53:03.266Z,102697.47
2024-05-09T17:55:30.220Z,102691.91
2024-05-09T17:57:57.344Z,102690.22
2024-05-09T18:00:33.543Z,102690.66
2024-05-09T18:03:06.476Z,102699.03
2024-05-09T18:05:36.500Z,102698.84
2024-05-09T18:08:04.108Z,102699.44
2024-05-09T18:10:37.936Z,102694.00
2024-05-09T18:13:08.632Z,102691.59
2024-05-09T18:15:36.014Z,102688.03
2024-05-09T18:18:03.843Z,102701.50
2024-05-09T18:20:40.413Z,102698.38
2024-05-09T18:23:11.910Z,102698.00
2024-05-09T18:25:41.127Z,102690.91
2024-05-09T18:28:11.080Z,102694.88
2024-05-09T18:30:41.770Z,102700.50
2024-05-09T18:33:11.227Z,102701.56
2024-05-09T18:35:38.617Z,102709.41
2024-05-09T18:38:05.776Z,102703.56
2024-05-09T18:40:36.182Z,102715.09
2024-05-09T18:43:08.901Z,102707.97
2024-05-09T18:45:38.141Z,102714.56
2024-05-09T18:48:10.036Z,102715.94
2024-05-09T18:50:40.143Z,102718.53
2024-05-09T18:53:13.688Z,102715.09
2024-05-09T18:55:44.425Z,102711.75
2024-05-09T18:58:11.584Z,102712.47
2024-05-09T19:00:43.808Z,102715.28
2024-05-09T19:03:14.129Z,102711.31
2024-05-09T19:05:45.887Z,102718.63
2024-05-09T19:08:14.591Z,102711.91
2024-05-09T19:10:41.713Z,102713.25
2024-05-09T19:13:12.146Z,102715.00
2024-05-09T19:15:41.264Z,102714.34
2024-05-09T19:18:09.717Z,102713.69
2024-05-09T19:20:37.453Z,102711.44
2024-05-09T19:23:06.609Z,102716.38
2024-05-09T19:25:34.639Z,102719.69
2024-05-09T19:28:01.761Z,102719.78
2024-05-09T19:30:37.241Z,102714.28
2024-05-09T19:33:09.087Z,102711.63
2024-05-09T19:35:36.402Z,102712.13
2024-05-09T19:38:03.836Z,102711.84
2024-05-09T19:40:32.927Z,102713.59
2024-05-09T19:43:02.708Z,102718.03
2024-05-09T19:45:33.377Z,102720.22
2024-05-09T19:48:03.508Z,102722.28
2024-05-09T19:50:39.314Z,102716.38
2024-05-09T19:53:10.373Z,102717.22
2024-05-09T19:55:39.927Z,102718.50
2024-05-09T19:58:10.092Z,102721.38
2024-05-09T20:00:40.317Z,102718.63
2024-05-09T20:03:10.241Z,102728.78
2024-05-09T20:05:38.560Z,102725.66
2024-05-09T20:08:06.622Z,102731.00
2024-05-09T20:10:36.880Z,102735.88
2024-05-09T20:13:06.256Z,102737.53
2024-05-09T20:15:35.720Z,102736.78
2024-05-09T20:18:02.956Z,102738.44
2024-05-09T20:20:37.357Z,102733.25
2024-05-09T20:23:08.675Z,102730.06
2024-05-09T20:25:38.022Z,102731.72
2024-05-09T20:28:07.312Z,102732.97
2024-05-09T20:30:35.419Z,102728.22
2024-05-09T20:33:04.804Z,102732.69
2024-05-09T20:35:33.288Z,102736.34
2024-05-09T20:38:01.570Z,102721.97
2024-05-09T20:40:33.458Z,102719.88
2024-05-09T20:43:04.012Z,102728.91
2024-05-09T20:45:30.958Z,102719.44
2024-05-09T20:48:00.585Z,102723.56
2024-05-09T20:50:36.629Z,102729.25
2024-05-09T20:53:15.845Z,102733.31
2024-05-09T20:55:45.929Z,102726.59
2024-05-09T20:58:13.412Z,102734.25
2024-05-09T21:00:45.025Z,102719.47
2024-05-09T21:03:15.210Z,102723.94
2024-05-09T21:05:44.811Z,102726.00
2024-05-09T21:08:11.740Z,102721.22
2024-05-09T21:10:38.869Z,102718.03
2024-05-09T21:13:06.985Z,102726.06
2024-05-09T21:15:34.341Z,102716.91
2024-05-09T21:18:01.223Z,102716.09
2024-05-09T21:20:31.748Z,102717.75
2024-05-09T21:23:02.743Z,102713.38
2024-05-09T21:25:30.010Z,102708.59
2024-05-09T21:27:57.079Z,102710.25
2024-05-09T21:30:32.654Z,102704.66
2024-05-09T21:33:13.168Z,102706.28
2024-05-09T21:35:42.218Z,102705.13
2024-05-09T21:38:09.112Z,102707.97
2024-05-09T21:40:37.374Z,102699.56
2024-05-09T21:43:08.020Z,102706.03
2024-05-09T21:45:36.135Z,102705.66
2024-05-09T21:48:04.459Z,102704.09
2024-05-09T21:50:38.684Z,102705.72
2024-05-09T21:53:08.117Z,102703.75
2024-05-09T21:55:34.990Z,102707.38
2024-05-09T21:58:02.040Z,102707.41
2024-05-09T22:00:35.803Z,102705.47
2024-05-09T22:03:06.052Z,102701.47
2024-05-09T22:05:33.152Z,102703.09
2024-05-09T22:08:00.210Z,102700.34
2024-05-09T22:10:33.363Z,102698.38
2024-05-09T22:13:02.610Z,102709.59
2024-05-09T22:15:29.497Z,102696.84
2024-05-09T22:17:57.543Z,102708.44
2024-05-09T22:20:34.114Z,102708.50
2024-05-09T22:23:04.896Z,102709.34
2024-05-09T22:25:34.552Z,102710.16
2024-05-09T22:28:07.284Z,102706.16
2024-05-09T22:30:37.984Z,102703.41
2024-05-09T22:33:08.781Z,102701.44
2024-05-09T22:35:36.895Z,102701.44
2024-05-09T22:38:04.052Z,102695.88
2024-05-09T22:40:41.661Z,102701.09
2024-05-09T22:43:17.142Z,102699.13
2024-05-09T22:45:44.481Z,102697.94
2024-05-09T22:48:11.438Z,102689.59
2024-05-09T22:50:38.311Z,102690.38
2024-05-09T22:53:05.679Z,102691.97
2024-05-09T22:55:32.507Z,102688.78
2024-05-09T22:57:59.431Z,102682.44
2024-05-09T23:00:31.427Z,102677.25
2024-05-09T23:03:02.836Z,102676.88
2024-05-09T23:05:32.320Z,102674.09
2024-05-09T23:08:01.278Z,102665.75
2024-05-09T23:10:35.435Z,102663.75
2024-05-09T23:13:04.530Z,102666.16
2024-05-09T23:15:31.653Z,102663.41
2024-05-09T23:17:59.011Z,102668.59
2024-05-09T23:20:36.283Z,102665.03
2024-05-09T23:23:10.604Z,102663.84
2024-05-09T23:25:38.601Z,102662.66
2024-05-09T23:28:05.836Z,102669.88
2024-05-09T23:30:37.853Z,102668.69
2024-05-09T23:33:08.086Z,102674.72
2024-05-09T23:35:38.254Z,102680.31
2024-05-09T23:38:05.158Z,102678.34
2024-05-09T23:43:04.086Z,102687.13
2024-05-09T23:45:31.193Z,102684.75
2024-05-09T23:47:58.058Z,102675.59
2024-05-09T23:50:33.127Z,102682.78
2024-05-09T23:53:03.162Z,102676.81
2024-05-09T23:55:31.799Z,102678.44
2024-05-09T23:57:59.047Z,102680.03
